Time;durP1;ratioP1;P1;durP2;ratioP2;P2;SDS_P1;SDS_P2;PMS_P1;PMS_P2;Temp;Humidity;BMP_temperature;BMP_pressure;BME280_temperature;BME280_humidity;BME280_pressure;Samples;Min_cycle;Max_cycle;Signal;HPM_P1;HPM_P2
2021/11/19 00:01:58;;;;;;;37.33;24.30;;;10.10;99.90;;;;;;5071764;28;20202;-72
2021/11/19 00:04:26;;;;;;;36.00;23.30;;;10.10;99.90;;;;;;5072655;28;20286;-72
2021/11/19 00:06:54;;;;;;;37.77;23.53;;;10.10;99.90;;;;;;5071800;28;20210;-72
2021/11/19 00:09:21;;;;;;;34.00;22.77;;;10.20;99.90;;;;;;5072634;28;20252;-72
2021/11/19 00:11:50;;;;;;;31.97;22.47;;;10.10;99.90;;;;;;5068355;28;20202;-72
2021/11/19 00:14:19;;;;;;;33.43;22.43;;;10.20;99.90;;;;;;5072320;28;20638;-72
2021/11/19 00:16:54;;;;;;;34.00;22.67;;;10.20;99.90;;;;;;5071752;28;20206;-72
2021/11/19 00:19:22;;;;;;;31.07;20.27;;;10.20;99.90;;;;;;5072789;28;20214;-72
2021/11/19 00:21:49;;;;;;;33.03;21.93;;;10.20;99.90;;;;;;5071210;28;20202;-72
2021/11/19 00:24:16;;;;;;;29.00;20.67;;;10.20;99.90;;;;;;5072653;28;20202;-72
2021/11/19 00:26:43;;;;;;;30.60;20.37;;;10.20;99.90;;;;;;5072242;28;20605;-72
2021/11/19 00:29:12;;;;;;;28.93;19.00;;;10.20;99.90;;;;;;5064689;28;20658;-72
2021/11/19 00:31:40;;;;;;;30.17;19.00;;;10.30;99.90;;;;;;5072126;28;20623;-72
2021/11/19 00:34:08;;;;;;;28.50;19.07;;;10.30;99.90;;;;;;5072870;28;20621;-72
2021/11/19 00:36:37;;;;;;;29.43;17.63;;;10.30;99.90;;;;;;5072577;28;20259;-72
2021/11/19 00:39:07;;;;;;;26.47;17.97;;;10.30;99.90;;;;;;5072262;28;20248;-72
2021/11/19 00:41:37;;;;;;;28.20;19.00;;;10.40;99.90;;;;;;5070018;28;20625;-72
2021/11/19 00:44:05;;;;;;;26.93;18.63;;;10.40;99.90;;;;;;5070945;28;20203;-72
2021/11/19 00:46:33;;;;;;;27.30;17.47;;;10.40;99.90;;;;;;5072508;28;20267;-72
2021/11/19 00:49:00;;;;;;;26.40;17.10;;;10.40;99.90;;;;;;5072230;28;20199;-72
2021/11/19 00:51:32;;;;;;;26.70;18.43;;;10.40;99.90;;;;;;5071908;28;20228;-72
2021/11/19 00:54:00;;;;;;;31.00;18.87;;;10.40;99.90;;;;;;5072022;28;20222;-72
2021/11/19 00:56:30;;;;;;;28.13;17.90;;;10.40;99.90;;;;;;5072192;28;20261;-72
2021/11/19 00:58:58;;;;;;;27.17;17.73;;;10.40;99.90;;;;;;5073899;28;20238;-72
2021/11/19 01:01:30;;;;;;;32.20;19.13;;;10.40;99.90;;;;;;5073871;28;20240;-72
2021/11/19 01:03:58;;;;;;;27.83;17.97;;;10.50;99.90;;;;;;5072064;28;20660;-72
2021/11/19 01:06:25;;;;;;;26.27;19.00;;;10.40;99.90;;;;;;5071708;28;20705;-72
2021/11/19 01:08:54;;;;;;;25.40;17.17;;;10.40;99.90;;;;;;5071556;28;20260;-72
2021/11/19 01:11:23;;;;;;;26.67;18.50;;;10.40;99.90;;;;;;5079687;28;20206;-72
2021/11/19 01:13:53;;;;;;;24.97;17.20;;;10.40;99.90;;;;;;5084582;28;20700;-72
2021/11/19 01:16:24;;;;;;;26.80;18.10;;;10.40;99.90;;;;;;5071954;28;20263;-72
2021/11/19 01:18:53;;;;;;;26.40;17.23;;;10.40;99.90;;;;;;5071426;28;20234;-72
2021/11/19 01:21:32;;;;;;;28.00;18.70;;;10.40;99.90;;;;;;5071149;28;20260;-72
2021/11/19 01:24:02;;;;;;;26.97;17.43;;;10.40;99.90;;;;;;5058910;28;20224;-72
2021/11/19 01:26:31;;;;;;;26.37;17.97;;;10.50;99.90;;;;;;5071659;28;20207;-72
2021/11/19 01:29:01;;;;;;;26.00;18.13;;;10.50;99.90;;;;;;5071671;28;20561;-72
2021/11/19 01:31:31;;;;;;;24.90;17.37;;;10.50;99.90;;;;;;5070073;28;20202;-72
2021/11/19 01:33:59;;;;;;;26.93;16.93;;;10.50;99.90;;;;;;5071457;28;20258;-72
2021/11/19 01:36:26;;;;;;;26.73;18.73;;;10.50;99.90;;;;;;5071275;28;20206;-72
2021/11/19 01:38:53;;;;;;;27.10;17.57;;;10.40;99.90;;;;;;5071972;28;20198;-72
2021/11/19 01:41:25;;;;;;;29.43;18.80;;;10.40;99.90;;;;;;5071035;28;20598;-70
2021/11/19 01:43:55;;;;;;;26.50;17.10;;;10.50;99.90;;;;;;5069511;28;20198;-72
2021/11/19 01:46:26;;;;;;;26.73;19.03;;;10.50;99.90;;;;;;5071747;28;20611;-72
2021/11/19 01:48:54;;;;;;;26.37;17.73;;;10.40;99.90;;;;;;5071679;28;20198;-72
2021/11/19 01:51:28;;;;;;;26.20;17.93;;;10.50;99.90;;;;;;5071025;28;20195;-72
2021/11/19 01:53:59;;;;;;;29.10;18.77;;;10.50;99.90;;;;;;5070927;28;20257;-72
2021/11/19 01:56:34;;;;;;;28.53;17.77;;;10.50;99.90;;;;;;5070344;28;20198;-72
2021/11/19 01:59:05;;;;;;;27.37;18.37;;;10.50;99.90;;;;;;5071962;28;20213;-72
2021/11/19 02:01:35;;;;;;;29.80;17.97;;;10.50;99.90;;;;;;5070696;28;20252;-72
2021/11/19 02:04:07;;;;;;;26.37;17.60;;;10.50;99.90;;;;;;5059980;28;20290;-72
2021/11/19 02:06:40;;;;;;;28.07;18.37;;;10.50;99.90;;;;;;5071513;28;20206;-72
2021/11/19 02:09:11;;;;;;;29.63;20.20;;;10.50;99.90;;;;;;5069717;28;20616;-72
2021/11/19 02:11:48;;;;;;;26.97;18.30;;;10.40;99.90;;;;;;5071083;28;20241;-72
2021/11/19 02:14:21;;;;;;;28.20;19.27;;;10.40;99.90;;;;;;5059699;28;20286;-72
2021/11/19 02:16:52;;;;;;;30.50;19.73;;;10.40;99.90;;;;;;5070117;28;20199;-72
2021/11/19 02:19:22;;;;;;;28.83;17.87;;;10.40;99.90;;;;;;5071236;28;20213;-72
2021/11/19 02:21:54;;;;;;;30.63;21.13;;;10.40;99.90;;;;;;5070714;28;20210;-72
2021/11/19 02:24:25;;;;;;;35.10;20.93;;;10.40;99.90;;;;;;5071483;28;20664;-72
2021/11/19 02:26:59;;;;;;;29.83;20.07;;;10.40;99.90;;;;;;5054039;28;20656;-72
2021/11/19 02:29:28;;;;;;;29.47;18.43;;;10.40;99.90;;;;;;5069815;28;20198;-72
2021/11/19 02:31:59;;;;;;;29.37;19.63;;;10.40;99.90;;;;;;5070192;28;20202;-72
2021/11/19 02:34:27;;;;;;;31.57;20.53;;;10.40;99.90;;;;;;5069879;28;20254;-72
2021/11/19 02:36:58;;;;;;;29.17;19.20;;;10.40;99.90;;;;;;5069509;28;20256;-72
2021/11/19 02:39:29;;;;;;;27.63;18.87;;;10.40;99.90;;;;;;5070447;28;20251;-72
2021/11/19 02:42:02;;;;;;;28.17;18.87;;;10.40;99.90;;;;;;5070962;28;20199;-72
2021/11/19 02:44:34;;;;;;;28.83;18.30;;;10.30;99.90;;;;;;5063725;28;20198;-72
2021/11/19 02:47:11;;;;;;;28.97;18.17;;;10.30;99.90;;;;;;5071197;28;20210;-72
2021/11/19 02:49:38;;;;;;;26.43;18.03;;;10.30;99.90;;;;;;5064194;28;20204;-72
2021/11/19 02:52:07;;;;;;;26.10;17.13;;;10.30;99.90;;;;;;5070604;28;20579;-72
2021/11/19 02:54:36;;;;;;;25.27;17.00;;;10.30;99.90;;;;;;5072245;28;20618;-69
2021/11/19 02:57:07;;;;;;;24.60;16.50;;;10.30;99.90;;;;;;5073326;28;20618;-70
2021/11/19 02:59:34;;;;;;;27.30;17.10;;;10.30;99.90;;;;;;5074988;28;20222;-69
2021/11/19 03:02:04;;;;;;;24.77;15.83;;;10.30;99.90;;;;;;5073590;28;20255;-70
2021/11/19 03:04:34;;;;;;;24.00;15.93;;;10.30;99.90;;;;;;5074775;28;20194;-69
2021/11/19 03:07:02;;;;;;;25.60;15.90;;;10.30;99.90;;;;;;5073291;28;20202;-70
2021/11/19 03:09:31;;;;;;;24.17;15.60;;;10.30;99.90;;;;;;5074269;28;20200;-70
2021/11/19 03:11:59;;;;;;;25.00;15.63;;;10.30;99.90;;;;;;5072472;28;20348;-70
2021/11/19 03:14:28;;;;;;;26.00;16.83;;;10.30;99.90;;;;;;5073393;28;20218;-70
2021/11/19 03:16:56;;;;;;;24.47;15.33;;;10.30;99.90;;;;;;5073358;28;20279;-70
2021/11/19 03:19:24;;;;;;;24.87;15.37;;;10.30;99.90;;;;;;5073706;28;20282;-69
2021/11/19 03:21:52;;;;;;;22.50;15.47;;;10.30;99.90;;;;;;5070993;28;20206;-70
2021/11/19 03:24:20;;;;;;;23.63;15.60;;;10.30;99.90;;;;;;5073691;28;20702;-70
2021/11/19 03:26:51;;;;;;;24.73;15.17;;;10.30;99.90;;;;;;5073225;28;20248;-70
2021/11/19 03:29:20;;;;;;;22.23;14.67;;;10.30;99.90;;;;;;5074152;28;20261;-70
2021/11/19 03:31:50;;;;;;;24.40;15.20;;;10.30;99.90;;;;;;5073571;28;20210;-70
2021/11/19 03:34:18;;;;;;;23.87;15.30;;;10.30;99.90;;;;;;5072842;28;20761;-69
2021/11/19 03:36:49;;;;;;;22.87;15.53;;;10.40;99.90;;;;;;5072812;28;20207;-70
2021/11/19 03:39:17;;;;;;;26.40;16.63;;;10.40;99.90;;;;;;5072243;28;20199;-69
2021/11/19 03:41:46;;;;;;;23.67;16.07;;;10.40;99.90;;;;;;5071731;28;20260;-70
2021/11/19 03:44:15;;;;;;;23.00;15.33;;;10.40;99.90;;;;;;5072920;28;20644;-70
2021/11/19 03:46:46;;;;;;;25.70;16.37;;;10.40;99.90;;;;;;5072739;28;20260;-70
2021/11/19 03:49:15;;;;;;;24.93;15.63;;;10.40;99.90;;;;;;5074092;28;20206;-70
2021/11/19 03:51:45;;;;;;;21.53;14.70;;;10.40;99.90;;;;;;5073054;28;20202;-69
2021/11/19 03:54:15;;;;;;;24.60;16.63;;;10.40;99.90;;;;;;5073465;28;20222;-71
2021/11/19 03:56:43;;;;;;;24.30;15.63;;;10.40;99.90;;;;;;5073496;28;20263;-72
2021/11/19 03:59:11;;;;;;;23.37;14.87;;;10.40;99.90;;;;;;5073473;28;20613;-72
2021/11/19 04:01:41;;;;;;;24.77;15.83;;;10.50;99.90;;;;;;5071420;28;20206;-72
2021/11/19 04:04:10;;;;;;;24.10;15.13;;;10.50;99.90;;;;;;5071879;28;20248;-72
2021/11/19 04:06:38;;;;;;;23.90;16.00;;;10.50;99.90;;;;;;5054850;28;20195;-73
2021/11/19 04:09:06;;;;;;;22.60;15.43;;;10.50;99.90;;;;;;5073077;28;20571;-72
2021/11/19 04:11:34;;;;;;;27.70;16.80;;;10.50;99.90;;;;;;5071329;28;20249;-72
2021/11/19 04:14:01;;;;;;;22.63;14.50;;;10.50;99.90;;;;;;5072375;28;20218;-72
2021/11/19 04:16:36;;;;;;;23.43;16.17;;;10.50;99.90;;;;;;5072876;28;20220;-72
2021/11/19 04:19:05;;;;;;;23.90;15.43;;;10.50;99.90;;;;;;5068102;28;20226;-73
2021/11/19 04:21:33;;;;;;;22.53;14.77;;;10.50;99.90;;;;;;5071716;28;20244;-72
2021/11/19 04:24:02;;;;;;;22.97;14.93;;;10.50;99.90;;;;;;5055377;28;20259;-72
2021/11/19 04:26:31;;;;;;;22.47;14.90;;;10.60;99.90;;;;;;5070490;28;20234;-72
2021/11/19 04:28:58;;;;;;;22.80;14.47;;;10.60;99.90;;;;;;5072472;28;20640;-72
2021/11/19 04:31:27;;;;;;;24.63;15.33;;;10.60;99.90;;;;;;5069971;28;20194;-72
2021/11/19 04:33:55;;;;;;;21.80;14.07;;;10.60;99.90;;;;;;5071871;28;20256;-72
2021/11/19 04:36:24;;;;;;;23.00;15.53;;;10.60;99.90;;;;;;5072665;28;20267;-72
2021/11/19 04:38:51;;;;;;;22.70;14.10;;;10.60;99.90;;;;;;5070723;28;20539;-72
2021/11/19 04:41:20;;;;;;;20.60;13.90;;;10.60;99.90;;;;;;5071784;28;20267;-72
2021/11/19 04:43:47;;;;;;;23.27;14.17;;;10.60;99.90;;;;;;5072697;28;20202;-72
2021/11/19 04:46:14;;;;;;;21.53;14.30;;;10.60;99.90;;;;;;5071685;28;20252;-72
2021/11/19 04:48:42;;;;;;;23.03;13.83;;;10.50;99.90;;;;;;5072234;28;20194;-72
2021/11/19 04:51:18;;;;;;;20.03;12.90;;;10.60;99.90;;;;;;5072376;28;20206;-72
2021/11/19 04:53:45;;;;;;;20.47;13.03;;;10.60;99.90;;;;;;5070355;28;20231;-72
2021/11/19 04:56:13;;;;;;;20.20;13.37;;;10.60;99.90;;;;;;5072701;28;20238;-72
2021/11/19 04:58:42;;;;;;;20.30;12.90;;;10.50;99.90;;;;;;5072253;28;20722;-72
2021/11/19 05:01:12;;;;;;;20.10;12.97;;;10.60;99.90;;;;;;5070552;28;20809;-72
2021/11/19 05:03:40;;;;;;;21.00;13.70;;;10.60;99.90;;;;;;5072498;28;20241;-72
2021/11/19 05:06:08;;;;;;;20.63;13.27;;;10.60;99.90;;;;;;5071851;28;20202;-72
2021/11/19 05:08:35;;;;;;;20.33;13.27;;;10.60;99.90;;;;;;5072160;28;20343;-72
2021/11/19 05:11:03;;;;;;;20.30;12.83;;;10.60;99.90;;;;;;5070808;28;20659;-72
2021/11/19 05:13:32;;;;;;;20.70;13.17;;;10.50;99.90;;;;;;5072348;28;20206;-70
2021/11/19 05:16:04;;;;;;;24.03;14.90;;;10.50;99.90;;;;;;5070609;28;20269;-70
2021/11/19 05:18:32;;;;;;;22.77;14.90;;;10.50;99.90;;;;;;5071956;28;20723;-70
2021/11/19 05:20:59;;;;;;;21.27;13.40;;;10.50;99.90;;;;;;5070478;28;20255;-70
2021/11/19 05:23:27;;;;;;;21.47;13.47;;;10.50;99.90;;;;;;5072095;28;20202;-70
2021/11/19 05:25:55;;;;;;;22.90;14.50;;;10.50;99.90;;;;;;5070798;28;20656;-70
2021/11/19 05:28:23;;;;;;;21.27;14.20;;;10.50;99.90;;;;;;5070965;28;20214;-71
2021/11/19 05:30:50;;;;;;;20.57;13.33;;;10.50;99.90;;;;;;5071717;28;20251;-70
2021/11/19 05:33:22;;;;;;;20.10;13.23;;;10.50;99.90;;;;;;5070813;28;20224;-70
2021/11/19 05:35:50;;;;;;;21.30;13.60;;;10.50;99.90;;;;;;5071592;28;20638;-70
2021/11/19 05:38:18;;;;;;;22.13;13.77;;;10.50;99.90;;;;;;5071246;28;20208;-70
2021/11/19 05:40:47;;;;;;;22.97;14.87;;;10.50;99.90;;;;;;5069130;28;20259;-70
2021/11/19 05:43:14;;;;;;;23.77;14.13;;;10.50;99.90;;;;;;5072169;28;20198;-70
2021/11/19 05:45:41;;;;;;;25.70;15.07;;;10.60;99.90;;;;;;5071122;28;20233;-70
2021/11/19 05:48:09;;;;;;;21.80;13.37;;;10.60;99.90;;;;;;5070990;28;20198;-70
2021/11/19 05:50:40;;;;;;;23.07;13.70;;;10.60;99.90;;;;;;5071050;28;20205;-70
2021/11/19 05:53:09;;;;;;;25.77;14.10;;;10.60;99.90;;;;;;5071735;28;20672;-70
2021/11/19 05:55:41;;;;;;;23.17;13.73;;;10.60;99.90;;;;;;5070234;28;20218;-70
2021/11/19 05:58:08;;;;;;;24.37;14.30;;;10.60;99.90;;;;;;5072045;28;20240;-70
2021/11/19 06:00:40;;;;;;;24.23;14.70;;;10.60;99.90;;;;;;5070683;28;20568;-70
2021/11/19 06:03:09;;;;;;;23.50;14.10;;;10.60;99.90;;;;;;5070886;28;20237;-70
2021/11/19 06:05:38;;;;;;;23.23;13.90;;;10.60;99.90;;;;;;5070748;28;20663;-70
2021/11/19 06:08:07;;;;;;;25.47;15.00;;;10.60;99.90;;;;;;5050514;28;20281;-70
2021/11/19 06:10:37;;;;;;;24.27;15.90;;;10.70;99.90;;;;;;5050085;28;20199;-70
2021/11/19 06:13:08;;;;;;;24.73;15.73;;;10.60;99.90;;;;;;5058864;28;20230;-70
2021/11/19 06:15:39;;;;;;;24.47;15.83;;;10.60;99.90;;;;;;5071708;28;20761;-70
2021/11/19 06:18:09;;;;;;;22.87;14.80;;;10.70;99.90;;;;;;5071621;28;20240;-70
2021/11/19 06:20:43;;;;;;;23.53;14.73;;;10.60;99.90;;;;;;5070773;28;20202;-70
2021/11/19 06:23:17;;;;;;;24.47;14.93;;;10.60;99.90;;;;;;5070535;28;20276;-70
2021/11/19 06:25:45;;;;;;;22.77;13.43;;;10.70;99.90;;;;;;5070533;28;20214;-70
2021/11/19 06:28:20;;;;;;;23.80;14.67;;;10.70;99.90;;;;;;5072967;28;20202;-70
2021/11/19 06:30:47;;;;;;;24.77;14.37;;;10.70;99.90;;;;;;5073524;28;20656;-70
2021/11/19 06:33:15;;;;;;;24.70;14.63;;;10.70;99.90;;;;;;5073243;28;20740;-70
2021/11/19 06:35:43;;;;;;;23.80;14.83;;;10.70;99.90;;;;;;5074850;28;20628;-70
2021/11/19 06:38:10;;;;;;;22.60;13.73;;;10.80;99.90;;;;;;5075251;28;20668;-70
2021/11/19 06:40:37;;;;;;;22.17;13.87;;;10.80;99.90;;;;;;5073699;28;20531;-70
2021/11/19 06:43:04;;;;;;;22.33;13.57;;;10.80;99.90;;;;;;5075314;28;20198;-70
2021/11/19 06:45:32;;;;;;;24.17;13.83;;;10.80;99.90;;;;;;5073868;28;20236;-70
2021/11/19 06:48:03;;;;;;;23.80;13.53;;;10.80;99.90;;;;;;5074873;28;20198;-70
2021/11/19 06:50:31;;;;;;;24.43;14.60;;;10.80;99.90;;;;;;5073579;28;20275;-70
2021/11/19 06:53:00;;;;;;;20.73;13.47;;;10.80;99.90;;;;;;5074845;28;20199;-70
2021/11/19 06:55:28;;;;;;;22.87;13.47;;;10.80;99.90;;;;;;5073770;28;20222;-71
2021/11/19 06:57:55;;;;;;;22.23;13.27;;;10.80;99.90;;;;;;5074268;28;20260;-70
2021/11/19 07:00:25;;;;;;;23.30;13.97;;;10.80;99.90;;;;;;5073941;28;20544;-70
2021/11/19 07:02:52;;;;;;;19.80;12.90;;;10.90;99.90;;;;;;5074211;28;20206;-70
2021/11/19 07:05:20;;;;;;;20.93;13.57;;;10.90;99.90;;;;;;5074293;28;20241;-70
2021/11/19 07:07:47;;;;;;;20.63;13.13;;;10.90;99.90;;;;;;5073872;28;20202;-70
2021/11/19 07:10:17;;;;;;;19.83;12.20;;;10.80;99.90;;;;;;5072277;28;20202;-70
2021/11/19 07:12:44;;;;;;;20.57;12.53;;;10.80;99.90;;;;;;5075683;28;20202;-70
2021/11/19 07:15:16;;;;;;;20.80;13.97;;;10.80;99.90;;;;;;5073464;28;20226;-70
2021/11/19 07:17:44;;;;;;;20.93;12.77;;;10.80;99.90;;;;;;5073738;28;20210;-70
2021/11/19 07:20:13;;;;;;;18.87;11.80;;;10.80;99.90;;;;;;5073416;28;20612;-70
2021/11/19 07:22:41;;;;;;;18.53;11.97;;;10.90;99.90;;;;;;5071284;28;20728;-70
2021/11/19 07:25:10;;;;;;;17.10;11.37;;;10.90;99.90;;;;;;5073613;28;20210;-70
2021/11/19 07:27:39;;;;;;;17.03;11.60;;;10.90;99.90;;;;;;5073268;28;20199;-70
2021/11/19 07:30:09;;;;;;;18.20;11.27;;;10.90;99.90;;;;;;5073374;28;20217;-70
2021/11/19 07:32:37;;;;;;;16.47;10.20;;;10.90;99.90;;;;;;5072602;28;20651;-70
2021/11/19 07:35:04;;;;;;;16.87;10.87;;;10.90;99.90;;;;;;5073081;28;20265;-70
2021/11/19 07:37:31;;;;;;;17.00;10.80;;;10.90;99.90;;;;;;5073020;28;20202;-70
2021/11/19 07:39:59;;;;;;;14.33;9.10;;;10.90;99.90;;;;;;5072321;28;20547;-70
2021/11/19 07:42:26;;;;;;;16.77;10.63;;;10.90;99.90;;;;;;5072110;28;20202;-70
2021/11/19 07:44:55;;;;;;;15.00;9.67;;;11.00;99.90;;;;;;5072956;28;20210;-70
2021/11/19 07:47:22;;;;;;;16.00;9.63;;;10.90;99.90;;;;;;5072900;28;20714;-70
2021/11/19 07:49:49;;;;;;;14.03;8.63;;;10.90;99.90;;;;;;5072825;28;20718;-70
2021/11/19 07:52:16;;;;;;;14.30;9.23;;;11.00;99.90;;;;;;5072437;28;20238;-70
2021/11/19 07:54:43;;;;;;;14.63;8.83;;;11.00;99.90;;;;;;5072641;28;20206;-70
2021/11/19 07:57:10;;;;;;;13.17;8.30;;;11.00;99.90;;;;;;5072856;28;20202;-70
2021/11/19 07:59:37;;;;;;;11.47;8.20;;;11.00;99.90;;;;;;5072497;28;20248;-70
2021/11/19 08:02:06;;;;;;;13.10;8.77;;;11.00;99.90;;;;;;5072404;28;20210;-70
2021/11/19 08:04:35;;;;;;;13.13;8.27;;;11.00;99.90;;;;;;5072436;28;20230;-70
2021/11/19 08:07:02;;;;;;;11.40;8.13;;;11.00;99.90;;;;;;5072855;28;20614;-70
2021/11/19 08:09:30;;;;;;;10.83;7.03;;;11.00;99.90;;;;;;5071592;28;20202;-70
2021/11/19 08:11:57;;;;;;;11.77;8.17;;;11.00;99.90;;;;;;5072374;28;20661;-70
2021/11/19 08:14:25;;;;;;;11.30;7.80;;;11.00;99.90;;;;;;5072019;28;20260;-70
2021/11/19 08:16:54;;;;;;;11.20;7.43;;;11.00;99.90;;;;;;5072317;28;20273;-70
2021/11/19 08:19:25;;;;;;;10.93;7.60;;;11.10;99.90;;;;;;5072126;28;20207;-70
2021/11/19 08:21:54;;;;;;;11.03;7.63;;;11.10;99.90;;;;;;5072010;28;20238;-70
2021/11/19 08:24:21;;;;;;;9.40;6.57;;;11.10;99.90;;;;;;5072226;28;20234;-70
2021/11/19 08:26:52;;;;;;;9.53;6.73;;;11.20;99.90;;;;;;5072180;28;20242;-70
2021/11/19 08:29:22;;;;;;;8.33;6.40;;;11.20;99.90;;;;;;5071636;28;20249;-70
2021/11/19 08:31:50;;;;;;;10.67;6.73;;;11.20;99.90;;;;;;5071754;28;20234;-70
2021/11/19 08:34:17;;;;;;;14.47;8.80;;;11.20;99.90;;;;;;5071970;28;20202;-70
2021/11/19 08:36:46;;;;;;;10.97;6.83;;;11.30;99.90;;;;;;5071983;28;20226;-70
2021/11/19 08:39:17;;;;;;;9.83;6.80;;;11.30;99.90;;;;;;5071882;28;20194;-71
2021/11/19 08:41:45;;;;;;;7.93;6.17;;;11.20;99.90;;;;;;5071544;28;20277;-71
2021/11/19 08:44:12;;;;;;;9.17;6.47;;;11.30;99.90;;;;;;5071661;28;20339;-70
2021/11/19 08:46:41;;;;;;;9.50;6.73;;;11.30;99.90;;;;;;5071736;28;20289;-70
2021/11/19 08:49:11;;;;;;;11.20;7.33;;;11.30;99.90;;;;;;5071964;28;20284;-70
2021/11/19 08:51:38;;;;;;;10.23;7.53;;;11.30;99.90;;;;;;5070631;28;20202;-70
2021/11/19 08:54:09;;;;;;;10.47;7.07;;;11.30;99.90;;;;;;5071875;28;20198;-70
2021/11/19 08:56:39;;;;;;;11.10;7.50;;;11.40;99.90;;;;;;5070744;28;20257;-70
2021/11/19 08:59:07;;;;;;;10.83;7.17;;;11.40;99.90;;;;;;5067276;28;20198;-70
2021/11/19 09:01:35;;;;;;;12.60;8.67;;;11.40;99.90;;;;;;5070790;28;20283;-70
2021/11/19 09:04:02;;;;;;;11.60;8.17;;;11.40;99.90;;;;;;5071199;28;20203;-71
2021/11/19 09:06:29;;;;;;;11.60;7.57;;;11.40;99.90;;;;;;5071366;28;20202;-71
2021/11/19 09:08:56;;;;;;;11.90;8.20;;;11.40;99.90;;;;;;5071186;28;20259;-71
2021/11/19 09:11:26;;;;;;;11.47;8.40;;;11.40;99.90;;;;;;5068949;28;20198;-70
2021/11/19 09:13:57;;;;;;;13.10;8.33;;;11.40;99.90;;;;;;5065024;28;20568;-70
2021/11/19 09:16:27;;;;;;;13.63;8.90;;;11.40;99.90;;;;;;5071336;28;20734;-70
2021/11/19 09:19:08;;;;;;;13.00;8.47;;;11.50;99.90;;;;;;5071203;28;20264;-71
2021/11/19 09:21:38;;;;;;;12.43;8.53;;;11.50;99.90;;;;;;5070273;28;20214;-71
2021/11/19 09:24:08;;;;;;;13.80;9.37;;;11.50;99.90;;;;;;5071109;28;20237;-70
2021/11/19 09:26:41;;;;;;;12.87;8.93;;;11.50;99.90;;;;;;5072954;28;20241;-70
2021/11/19 09:29:11;;;;;;;12.63;8.97;;;11.50;99.90;;;;;;5074482;28;20211;-70
2021/11/19 09:31:38;;;;;;;15.77;10.60;;;11.50;99.90;;;;;;5070570;28;20260;-70
2021/11/19 09:34:06;;;;;;;15.27;10.10;;;11.50;99.90;;;;;;5071067;28;20202;-70
2021/11/19 09:36:34;;;;;;;14.90;10.10;;;11.50;99.90;;;;;;5070620;28;20761;-70
2021/11/19 09:39:01;;;;;;;15.00;10.20;;;11.60;99.90;;;;;;5070716;28;20205;-70
2021/11/19 09:41:46;;;;;;;16.00;10.97;;;11.60;99.90;;;;;;5070353;28;20279;-70
2021/11/19 09:44:47;;;;;;;16.90;10.70;;;11.60;99.90;;;;;;5070545;28;20652;-70
2021/11/19 09:47:40;;;;;;;16.93;10.10;;;11.60;99.90;;;;;;5068456;28;20550;-70
2021/11/19 09:50:47;;;;;;;16.80;11.23;;;11.70;99.90;;;;;;5069445;28;20267;-70
2021/11/19 09:54:05;;;;;;;18.77;11.17;;;11.80;99.90;;;;;;5070661;28;20202;-70
2021/11/19 09:56:42;;;;;;;16.70;10.43;;;11.90;99.90;;;;;;5070299;28;20214;-71
2021/11/19 09:59:21;;;;;;;15.67;9.73;;;12.00;99.90;;;;;;5070722;28;20912;-71
2021/11/19 10:02:19;;;;;;;17.00;11.10;;;12.00;99.90;;;;;;5068609;28;20198;-70
2021/11/19 10:05:07;;;;;;;16.90;9.70;;;12.10;99.90;;;;;;5063934;28;20291;-70
2021/11/19 10:07:42;;;;;;;13.80;9.60;;;12.20;99.90;;;;;;5070017;28;20238;-70
2021/11/19 10:10:47;;;;;;;14.40;9.63;;;12.20;99.90;;;;;;5067625;28;20194;-70
2021/11/19 10:13:20;;;;;;;16.80;10.47;;;12.20;99.90;;;;;;5067153;28;20293;-70
2021/11/19 10:15:56;;;;;;;17.67;10.73;;;12.20;99.90;;;;;;5070809;28;20229;-70
2021/11/19 10:18:33;;;;;;;16.80;10.37;;;12.30;99.90;;;;;;5070320;28;20206;-70
2021/11/19 10:21:04;;;;;;;15.53;10.30;;;12.40;99.90;;;;;;5070514;28;20202;-70
2021/11/19 10:23:35;;;;;;;14.23;9.77;;;12.50;99.90;;;;;;5070454;28;20202;-70
2021/11/19 10:26:06;;;;;;;16.43;10.70;;;12.50;99.90;;;;;;5069745;28;20202;-70
2021/11/19 10:28:39;;;;;;;16.33;10.53;;;12.60;99.90;;;;;;5070225;28;20210;-70
2021/11/19 10:31:10;;;;;;;14.10;9.07;;;12.60;99.90;;;;;;5070018;28;20202;-71
2021/11/19 10:33:40;;;;;;;17.80;9.63;;;12.70;99.90;;;;;;5070221;28;20255;-70
2021/11/19 10:36:18;;;;;;;15.20;9.27;;;12.70;99.90;;;;;;5070511;28;20226;-70
2021/11/19 10:39:28;;;;;;;15.40;9.67;;;12.70;99.90;;;;;;5070419;28;20206;-70
2021/11/19 10:42:36;;;;;;;16.83;10.17;;;12.90;99.90;;;;;;5069354;28;20547;-70
2021/11/19 10:45:36;;;;;;;16.23;10.23;;;12.90;99.90;;;;;;5064869;28;20357;-71
2021/11/19 10:48:45;;;;;;;14.33;10.13;;;12.80;99.90;;;;;;5068097;28;20263;-70
2021/11/19 10:51:41;;;;;;;14.53;9.77;;;12.90;99.90;;;;;;5050039;28;20210;-71
2021/11/19 10:54:47;;;;;;;15.30;10.67;;;12.90;99.90;;;;;;5069009;28;20276;-71
2021/11/19 10:57:33;;;;;;;17.90;10.67;;;12.90;99.90;;;;;;5068874;28;20230;-71
2021/11/19 11:00:12;;;;;;;14.03;10.07;;;12.90;99.90;;;;;;5069183;28;20203;-71
2021/11/19 11:02:41;;;;;;;13.50;9.80;;;12.90;99.90;;;;;;5068678;28;20762;-70
2021/11/19 11:05:28;;;;;;;14.90;9.60;;;12.90;99.90;;;;;;5070659;28;20308;-71
2021/11/19 11:08:08;;;;;;;18.23;10.67;;;12.80;99.90;;;;;;5068916;28;20260;-71
2021/11/19 11:10:38;;;;;;;16.73;9.97;;;12.80;99.90;;;;;;5069185;28;20206;-71
2021/11/19 11:13:32;;;;;;;14.77;9.87;;;12.80;99.90;;;;;;5069568;28;20264;-70
2021/11/19 11:16:02;;;;;;;16.00;10.40;;;12.80;99.90;;;;;;5071371;28;20571;-71
2021/11/19 11:18:31;;;;;;;16.00;9.83;;;12.80;99.90;;;;;;5073630;28;20207;-71
2021/11/19 11:21:16;;;;;;;15.47;10.40;;;12.80;99.90;;;;;;5073220;28;20805;-71
2021/11/19 11:23:57;;;;;;;16.50;10.60;;;12.80;99.90;;;;;;5073392;28;20206;-70
2021/11/19 11:26:27;;;;;;;16.53;9.80;;;12.80;99.90;;;;;;5072603;28;20202;-71
2021/11/19 11:28:57;;;;;;;15.60;10.27;;;12.70;99.90;;;;;;5072989;28;20236;-71
2021/11/19 11:31:45;;;;;;;15.47;10.77;;;12.70;99.90;;;;;;5073749;28;20206;-69
2021/11/19 11:34:24;;;;;;;14.60;10.13;;;12.70;99.90;;;;;;5073291;28;20723;-70
2021/11/19 11:37:11;;;;;;;17.10;10.53;;;12.60;99.90;;;;;;5072596;28;20222;-69
2021/11/19 11:39:44;;;;;;;16.30;10.93;;;12.60;99.90;;;;;;5073138;28;20627;-69
2021/11/19 11:42:15;;;;;;;17.77;10.63;;;12.70;99.90;;;;;;5072652;28;20212;-70
2021/11/19 11:44:45;;;;;;;17.23;11.13;;;12.70;99.90;;;;;;5070976;28;20260;-69
2021/11/19 11:47:16;;;;;;;18.60;11.27;;;12.70;99.90;;;;;;5073209;28;20206;-69
2021/11/19 11:49:47;;;;;;;20.17;13.23;;;12.70;99.90;;;;;;5072974;28;20256;-69
2021/11/19 11:52:27;;;;;;;18.80;11.63;;;12.70;99.90;;;;;;5072355;28;20198;-69
2021/11/19 11:55:03;;;;;;;17.97;11.73;;;12.70;99.90;;;;;;5071568;28;20573;-70
2021/11/19 11:57:50;;;;;;;18.87;10.87;;;12.70;99.90;;;;;;5072607;28;20221;-69
2021/11/19 12:00:22;;;;;;;21.33;12.53;;;12.80;99.90;;;;;;5072224;28;20698;-70
2021/11/19 12:02:55;;;;;;;19.43;11.87;;;12.80;99.90;;;;;;5072497;28;20198;-70
2021/11/19 12:05:40;;;;;;;17.37;10.63;;;12.80;99.90;;;;;;5072799;28;20682;-69
2021/11/19 12:08:40;;;;;;;19.37;12.53;;;12.80;99.90;;;;;;5070095;28;20253;-71
2021/11/19 12:11:23;;;;;;;22.00;12.03;;;12.80;99.90;;;;;;5068302;28;20253;-71
2021/11/19 12:13:57;;;;;;;18.93;11.80;;;12.80;99.90;;;;;;5068487;28;20598;-71
2021/11/19 12:16:33;;;;;;;20.77;12.37;;;12.90;99.90;;;;;;5070382;28;20279;-71
2021/11/19 12:19:05;;;;;;;18.90;11.40;;;12.90;99.90;;;;;;5071948;28;20668;-71
2021/11/19 12:21:35;;;;;;;18.47;11.57;;;12.90;99.90;;;;;;5071582;28;20711;-70
2021/11/19 12:24:07;;;;;;;20.03;10.83;;;12.90;99.90;;;;;;5072341;28;20572;-71
2021/11/19 12:26:52;;;;;;;16.83;11.13;;;12.90;99.90;;;;;;5072136;28;20295;-71
2021/11/19 12:29:27;;;;;;;20.27;11.63;;;12.90;99.90;;;;;;5072225;28;20209;-71
2021/11/19 12:32:02;;;;;;;18.90;11.30;;;12.90;99.90;;;;;;5067350;28;20236;-71
2021/11/19 12:34:34;;;;;;;16.13;10.87;;;12.90;99.90;;;;;;5071719;28;20201;-71
2021/11/19 12:37:12;;;;;;;17.00;11.07;;;12.80;99.90;;;;;;5072054;28;20226;-71
2021/11/19 12:39:43;;;;;;;16.33;10.83;;;12.80;99.90;;;;;;5071795;28;20236;-71
2021/11/19 12:42:18;;;;;;;17.97;11.53;;;12.80;99.90;;;;;;5071168;28;20202;-71
2021/11/19 12:45:07;;;;;;;17.53;10.77;;;12.80;99.90;;;;;;5071760;28;20209;-71
2021/11/19 12:48:07;;;;;;;17.13;10.63;;;12.80;99.90;;;;;;5071128;28;20210;-71
2021/11/19 12:50:38;;;;;;;17.80;10.43;;;12.80;99.90;;;;;;5054576;28;20272;-71
2021/11/19 12:53:22;;;;;;;17.70;11.00;;;12.80;99.90;;;;;;5071979;28;20256;-71